createdAt,value
2022-09-06T00:00:57.872Z,5.05
2022-09-06T00:03:24.921Z,5.43
2022-09-06T00:05:51.574Z,4.22
2022-09-06T00:08:18.120Z,4.68
2022-09-06T00:10:44.746Z,3.42
2022-09-06T00:13:11.740Z,6.68
2022-09-06T00:15:38.359Z,4.82
2022-09-06T00:18:07.109Z,5.70
2022-09-06T00:20:34.799Z,4.53
2022-09-06T00:23:04.024Z,4.07
2022-09-06T00:25:31.146Z,2.92
2022-09-06T00:28:00.116Z,3.10
2022-09-06T00:30:27.494Z,7.05
2022-09-06T00:32:54.726Z,3.70
2022-09-06T00:35:24.688Z,4.22
2022-09-06T00:37:55.888Z,3.42
2022-09-06T00:40:22.491Z,4.10
2022-09-06T00:42:49.211Z,5.75
2022-09-06T00:45:15.747Z,3.22
2022-09-06T00:47:43.793Z,4.78
2022-09-06T00:50:14.347Z,8.70
2022-09-06T00:52:42.203Z,5.32
2022-09-06T00:55:09.550Z,7.10
2022-09-06T00:57:36.272Z,4.57
2022-09-06T01:00:05.368Z,3.38
2022-09-06T01:02:32.064Z,5.13
2022-09-06T01:04:58.973Z,4.05
2022-09-06T01:07:37.488Z,3.85
2022-09-06T01:10:41.283Z,3.38
2022-09-06T01:13:13.755Z,5.53
2022-09-06T01:15:57.025Z,5.70
2022-09-06T01:18:58.464Z,3.85
2022-09-06T01:21:49.673Z,3.30
2022-09-06T01:24:43.434Z,4.95
2022-09-06T01:27:48.474Z,3.88
2022-09-06T01:30:18.778Z,3.78
2022-09-06T01:33:02.147Z,3.15
2022-09-06T01:35:48.038Z,5.70
2022-09-06T01:38:15.683Z,3.70
2022-09-06T01:40:42.219Z,7.70
2022-09-06T01:43:13.074Z,5.18
2022-09-06T01:45:48.399Z,5.25
2022-09-06T01:48:25.991Z,4.22
2022-09-06T01:51:05.246Z,4.78
2022-09-06T01:53:47.166Z,4.15
2022-09-06T01:56:34.347Z,5.10
2022-09-06T01:59:31.005Z,2.88
2022-09-06T02:02:08.612Z,8.60
2022-09-06T02:04:40.165Z,4.95
2022-09-06T02:07:34.245Z,2.95
2022-09-06T02:10:16.462Z,3.05
2022-09-06T02:12:47.806Z,3.50
2022-09-06T02:15:23.607Z,3.78
2022-09-06T02:17:58.028Z,4.85
2022-09-06T02:20:30.807Z,5.57
2022-09-06T02:23:01.460Z,3.90
2022-09-06T02:25:34.013Z,4.40
2022-09-06T02:28:00.559Z,3.53
2022-09-06T02:30:27.086Z,4.18
2022-09-06T02:33:01.981Z,4.53
2022-09-06T02:35:28.750Z,3.70
2022-09-06T02:37:56.298Z,5.20
2022-09-06T02:40:22.966Z,4.05
2022-09-06T02:42:49.498Z,5.00
2022-09-06T02:45:16.110Z,3.55
2022-09-06T02:47:42.541Z,4.25
2022-09-06T02:50:09.175Z,3.22
2022-09-06T02:52:35.642Z,4.13
2022-09-06T02:55:02.129Z,3.08
2022-09-06T02:57:28.626Z,4.15
2022-09-06T02:59:55.042Z,3.30
2022-09-06T03:02:21.530Z,5.55
2022-09-06T03:04:48.147Z,3.17
2022-09-06T03:07:14.581Z,3.15
2022-09-06T03:09:41.608Z,4.00
2022-09-06T03:12:08.155Z,3.03
2022-09-06T03:14:36.135Z,2.85
2022-09-06T03:17:04.092Z,3.22
2022-09-06T03:19:30.593Z,3.35
2022-09-06T03:21:56.997Z,3.38
2022-09-06T03:24:23.626Z,3.13
2022-09-06T03:26:50.364Z,3.45
2022-09-06T03:29:16.866Z,3.30
2022-09-06T03:31:43.300Z,3.22
2022-09-06T03:34:11.254Z,3.65
2022-09-06T03:36:37.947Z,3.80
2022-09-06T03:39:04.378Z,6.65
2022-09-06T03:41:30.791Z,3.83
2022-09-06T03:43:57.249Z,4.13
2022-09-06T03:46:23.971Z,4.03
2022-09-06T03:48:50.455Z,3.25
2022-09-06T03:51:17.158Z,3.53
2022-09-06T03:53:43.605Z,3.30
2022-09-06T03:56:10.053Z,4.65
2022-09-06T03:58:36.510Z,3.28
2022-09-06T04:01:06.059Z,7.72
2022-09-06T04:03:33.438Z,4.30
2022-09-06T04:06:00.050Z,3.10
2022-09-06T04:08:26.952Z,3.75
2022-09-06T04:10:54.985Z,7.72
2022-09-06T04:13:23.236Z,4.53
2022-09-06T04:15:50.691Z,5.88
2022-09-06T04:18:17.457Z,5.90
2022-09-06T04:20:47.564Z,4.68
2022-09-06T04:23:14.022Z,3.50
2022-09-06T04:25:40.544Z,3.42
2022-09-06T04:28:07.070Z,4.53
2022-09-06T04:30:33.533Z,3.53
2022-09-06T04:32:59.954Z,8.32
2022-09-06T04:35:26.461Z,3.30
2022-09-06T04:37:52.942Z,2.92
2022-09-06T04:40:19.383Z,3.50
2022-09-06T04:42:45.817Z,2.78
2022-09-06T04:45:12.276Z,3.90
2022-09-06T04:47:38.748Z,4.25
2022-09-06T04:50:05.510Z,5.18
2022-09-06T04:52:31.957Z,3.20
2022-09-06T04:54:58.382Z,3.50
2022-09-06T04:57:24.938Z,8.48
2022-09-06T04:59:51.362Z,5.22
2022-09-06T05:02:17.853Z,3.83
2022-09-06T05:04:44.435Z,6.07
2022-09-06T05:07:10.893Z,4.15
2022-09-06T05:09:37.314Z,3.00
2022-09-06T05:12:04.223Z,4.20
2022-09-06T05:14:30.984Z,4.28
2022-09-06T05:16:57.571Z,3.67
2022-09-06T05:19:24.258Z,3.60
2022-09-06T05:21:51.595Z,3.13
2022-09-06T05:24:18.164Z,4.03
2022-09-06T05:26:44.601Z,3.65
2022-09-06T05:29:11.111Z,4.30
2022-09-06T05:31:37.577Z,6.22
2022-09-06T05:34:04.202Z,5.72
2022-09-06T05:36:31.274Z,3.78
2022-09-06T05:38:59.057Z,5.40
2022-09-06T05:41:26.249Z,7.90
2022-09-06T05:43:52.704Z,6.72
2022-09-06T05:46:19.236Z,3.45
2022-09-06T05:48:52.207Z,5.60
2022-09-06T05:51:18.717Z,4.40
2022-09-06T05:53:46.059Z,3.95
2022-09-06T05:56:14.558Z,4.32
2022-09-06T05:58:41.051Z,3.72
2022-09-06T06:01:23.526Z,5.35
2022-09-06T06:03:55.221Z,7.60
2022-09-06T06:06:24.249Z,4.45
2022-09-06T06:08:51.171Z,11.38
2022-09-06T06:11:17.648Z,26.98
2022-09-06T06:13:44.524Z,28.42
2022-09-06T06:16:14.114Z,28.30
2022-09-06T06:18:40.788Z,5.85
2022-09-06T06:21:19.167Z,6.55
2022-09-06T06:23:47.489Z,6.47
2022-09-06T06:26:14.046Z,5.93
2022-09-06T06:28:41.129Z,4.35
2022-09-06T06:31:10.617Z,3.97
2022-09-06T06:33:37.855Z,3.90
2022-09-06T06:36:23.301Z,4.55
2022-09-06T06:38:53.208Z,5.23
2022-09-06T06:41:23.902Z,6.97
2022-09-06T06:43:58.770Z,5.55
2022-09-06T06:46:27.665Z,3.95
2022-09-06T06:48:55.487Z,6.25
2022-09-06T06:51:25.003Z,9.48
2022-09-06T06:53:51.886Z,9.85
2022-09-06T06:56:31.109Z,7.18
2022-09-06T06:59:00.230Z,8.85
2022-09-06T07:01:29.616Z,5.97
2022-09-06T07:03:56.346Z,9.60
2022-09-06T07:09:10.232Z,12.00
2022-09-06T07:11:36.655Z,11.68
2022-09-06T07:14:03.162Z,11.40
2022-09-06T07:16:30.117Z,7.78
2022-09-06T07:18:56.643Z,5.57
2022-09-06T07:21:42.364Z,4.00
2022-09-06T07:24:09.479Z,4.45
2022-09-06T07:26:38.475Z,5.00
2022-09-06T07:29:06.649Z,5.13
2022-09-06T07:34:20.883Z,4.68
2022-09-06T07:36:48.198Z,6.70
2022-09-06T07:39:14.636Z,6.35
2022-09-06T07:41:41.175Z,5.22
2022-09-06T07:44:07.590Z,7.97
2022-09-06T07:46:34.052Z,5.22
2022-09-06T07:49:00.558Z,6.05
2022-09-06T07:51:26.974Z,6.72
2022-09-06T07:54:07.459Z,7.07
2022-09-06T07:56:42.358Z,5.05
2022-09-06T07:59:09.335Z,10.25
2022-09-06T08:01:37.433Z,8.80
2022-09-06T08:04:06.438Z,7.28
2022-09-06T08:09:22.350Z,6.55
2022-09-06T08:11:51.042Z,10.05
2022-09-06T08:14:17.497Z,7.53
2022-09-06T08:16:44.136Z,6.20
2022-09-06T08:19:12.301Z,8.32
2022-09-06T08:21:39.172Z,9.68
2022-09-06T08:24:07.309Z,4.38
2022-09-06T08:26:36.393Z,6.38
2022-09-06T08:29:06.768Z,5.97
2022-09-06T08:31:35.344Z,4.65
2022-09-06T08:34:02.411Z,9.02
2022-09-06T08:36:30.616Z,8.02
2022-09-06T08:39:04.883Z,5.95
2022-09-06T08:41:36.443Z,7.47
2022-09-06T08:47:10.742Z,6.00
2022-09-06T08:49:41.912Z,7.47
2022-09-06T08:52:26.457Z,7.35
2022-09-06T08:55:05.582Z,6.32
2022-09-06T08:57:50.733Z,6.53
2022-09-06T09:00:19.114Z,5.28
2022-09-06T09:02:49.236Z,6.05
2022-09-06T09:05:37.389Z,5.38
2022-09-06T09:08:32.279Z,3.55
2022-09-06T09:11:02.454Z,4.57
2022-09-06T09:13:38.894Z,5.97
2022-09-06T09:16:06.131Z,5.28
2022-09-06T09:18:38.514Z,4.28
2022-09-06T09:21:05.944Z,5.53
2022-09-06T09:23:32.711Z,5.88
2022-09-06T09:26:04.771Z,4.82
2022-09-06T09:28:31.724Z,5.25
2022-09-06T09:30:58.302Z,3.30
2022-09-06T09:33:32.791Z,10.73
2022-09-06T09:36:07.334Z,8.27
2022-09-06T09:38:41.317Z,4.78
2022-09-06T09:41:08.783Z,4.35
2022-09-06T09:43:39.251Z,4.93
2022-09-06T09:46:29.786Z,2.70
2022-09-06T09:49:10.284Z,7.10
2022-09-06T09:51:42.345Z,3.97
2022-09-06T09:54:11.725Z,8.55
2022-09-06T09:56:51.659Z,4.72
2022-09-06T09:59:20.882Z,3.78
2022-09-06T10:01:47.874Z,4.50
2022-09-06T10:07:14.208Z,3.03
2022-09-06T10:09:43.827Z,4.03
2022-09-06T10:12:17.795Z,2.97
2022-09-06T10:14:47.713Z,5.20
2022-09-06T10:17:27.150Z,6.90
2022-09-06T10:19:54.011Z,4.00
2022-09-06T10:22:30.979Z,2.40
2022-09-06T10:25:10.441Z,2.42
2022-09-06T10:27:55.656Z,1.98
2022-09-06T10:30:33.925Z,2.15
2022-09-06T10:33:08.035Z,3.67
2022-09-06T10:35:46.673Z,5.22
2022-09-06T10:38:36.519Z,3.08
2022-09-06T10:41:14.762Z,2.40
2022-09-06T10:44:01.359Z,2.17
2022-09-06T10:46:30.098Z,2.53
2022-09-06T10:48:56.787Z,2.35
2022-09-06T10:51:45.745Z,3.08
2022-09-06T10:54:20.768Z,4.78
2022-09-06T10:57:02.575Z,4.63
2022-09-06T11:02:28.165Z,3.60
2022-09-06T11:10:45.490Z,1.45
2022-09-06T11:13:17.707Z,2.97
2022-09-06T11:16:10.485Z,2.10
2022-09-06T11:18:47.161Z,2.55
2022-09-06T11:21:41.242Z,1.65
2022-09-06T11:24:28.178Z,1.70
2022-09-06T11:27:19.288Z,1.83
2022-09-06T11:29:56.268Z,2.15
2022-09-06T11:32:40.701Z,3.17
2022-09-06T11:35:11.050Z,2.05
2022-09-06T11:37:43.072Z,1.65
2022-09-06T11:40:27.277Z,1.90
2022-09-06T11:43:06.754Z,2.47
2022-09-06T11:45:43.443Z,5.88
2022-09-06T11:48:34.005Z,3.58
2022-09-06T11:51:02.239Z,2.03
2022-09-06T11:53:31.963Z,1.20
2022-09-06T11:55:58.375Z,2.22
2022-09-06T11:58:33.134Z,2.58
2022-09-06T12:01:16.537Z,4.40
2022-09-06T12:06:33.738Z,1.60
2022-09-06T12:09:00.395Z,2.47
2022-09-06T12:11:40.306Z,5.57
2022-09-06T12:14:19.770Z,1.80
2022-09-06T12:16:58.445Z,4.47
2022-09-06T12:19:46.960Z,2.63
2022-09-06T12:22:35.958Z,2.65
2022-09-06T12:25:17.889Z,3.70
2022-09-06T12:27:57.374Z,1.40
2022-09-06T12:30:51.003Z,2.10
2022-09-06T12:33:22.217Z,1.42
2022-09-06T12:35:57.398Z,1.63
2022-09-06T12:38:25.833Z,1.58
2022-09-06T12:40:58.241Z,1.92
2022-09-06T12:43:25.902Z,2.45
2022-09-06T12:45:52.657Z,4.68
2022-09-06T12:48:28.597Z,2.10
2022-09-06T12:51:19.481Z,1.83
2022-09-06T12:53:54.557Z,1.40
2022-09-06T12:56:23.095Z,3.50
2022-09-06T12:58:49.557Z,2.05
2022-09-06T13:01:29.572Z,2.72
2022-09-06T13:04:02.674Z,1.77
2022-09-06T13:06:33.733Z,2.65
2022-09-06T13:09:02.186Z,1.63
2022-09-06T13:11:34.746Z,1.85
2022-09-06T13:14:13.809Z,1.83
2022-09-06T13:16:46.961Z,1.40
2022-09-06T13:19:15.850Z,3.10
2022-09-06T13:21:44.733Z,4.10
2022-09-06T13:24:46.565Z,3.30
2022-09-06T13:27:28.445Z,1.85
2022-09-06T13:30:00.389Z,1.40
2022-09-06T13:32:28.051Z,2.88
2022-09-06T13:34:58.211Z,4.38
2022-09-06T13:37:27.556Z,2.08
2022-09-06T13:39:54.281Z,2.78
2022-09-06T13:42:28.708Z,3.85
2022-09-06T13:44:58.834Z,4.38
2022-09-06T13:47:29.658Z,6.30
2022-09-06T13:49:56.108Z,3.50
2022-09-06T13:52:22.997Z,1.25
2022-09-06T13:54:49.428Z,1.92
2022-09-06T13:57:19.991Z,2.63
2022-09-06T13:59:49.982Z,3.65
2022-09-06T14:02:17.784Z,1.85
2022-09-06T14:04:44.305Z,5.63
2022-09-06T14:07:10.985Z,2.28
2022-09-06T14:09:38.055Z,1.38
2022-09-06T14:12:06.650Z,1.90
2022-09-06T14:14:34.254Z,1.90
2022-09-06T14:17:00.813Z,2.78
2022-09-06T14:19:27.654Z,2.22
2022-09-06T14:21:54.088Z,2.08
2022-09-06T14:24:20.634Z,2.30
2022-09-06T14:26:47.218Z,2.30
2022-09-06T14:29:13.617Z,2.83
2022-09-06T14:31:40.353Z,3.08
2022-09-06T14:34:06.981Z,3.75
2022-09-06T14:36:34.551Z,1.42
2022-09-06T14:39:02.258Z,4.63
2022-09-06T14:41:28.866Z,2.70
2022-09-06T14:43:57.403Z,2.85
2022-09-06T14:46:26.044Z,1.40
2022-09-06T14:49:00.079Z,1.75
2022-09-06T14:51:27.214Z,3.38
2022-09-06T14:53:56.653Z,2.42
2022-09-06T14:56:23.957Z,2.65
2022-09-06T14:58:50.444Z,2.30
2022-09-06T15:01:16.856Z,5.10
2022-09-06T15:03:51.480Z,1.88
2022-09-06T15:06:20.584Z,2.35
2022-09-06T15:08:48.555Z,1.73
2022-09-06T15:11:27.367Z,2.40
2022-09-06T15:13:53.861Z,2.65
2022-09-06T15:16:20.283Z,3.67
2022-09-06T15:18:46.766Z,4.50
2022-09-06T15:21:15.685Z,3.25
2022-09-06T15:23:45.471Z,1.65
2022-09-06T15:26:13.766Z,1.33
2022-09-06T15:28:42.103Z,2.78
2022-09-06T15:31:09.187Z,3.67
2022-09-06T15:33:37.219Z,2.85
2022-09-06T15:36:08.784Z,2.17
2022-09-06T15:38:38.141Z,2.50
2022-09-06T15:41:08.168Z,3.13
2022-09-06T15:43:36.599Z,4.63
2022-09-06T15:46:03.322Z,3.60
2022-09-06T15:48:40.957Z,2.63
2022-09-06T15:51:07.505Z,2.25
2022-09-06T15:53:33.941Z,3.22
2022-09-06T15:56:02.609Z,2.63
2022-09-06T15:58:29.372Z,3.28
2022-09-06T16:01:01.832Z,2.80
2022-09-06T16:03:28.448Z,2.28
2022-09-06T16:08:49.668Z,3.22
2022-09-06T16:11:17.992Z,2.72
2022-09-06T16:13:45.413Z,3.45
2022-09-06T16:16:14.579Z,2.38
2022-09-06T16:18:43.364Z,3.85
2022-09-06T16:21:13.412Z,4.35
2022-09-06T16:23:41.949Z,2.58
2022-09-06T16:26:09.508Z,2.83
2022-09-06T16:28:37.443Z,3.15
2022-09-06T16:31:07.413Z,4.05
2022-09-06T16:33:36.048Z,7.05
2022-09-06T16:36:05.028Z,4.32
2022-09-06T16:38:32.851Z,2.28
2022-09-06T16:41:00.888Z,3.10
2022-09-06T16:43:28.553Z,3.78
2022-09-06T16:46:00.588Z,3.05
2022-09-06T16:48:28.315Z,2.72
2022-09-06T16:50:55.101Z,5.38
2022-09-06T16:53:22.555Z,5.40
2022-09-06T16:55:49.101Z,4.72
2022-09-06T16:58:15.811Z,5.13
2022-09-06T17:00:44.884Z,3.72
2022-09-06T17:03:15.173Z,3.15
2022-09-06T17:05:41.638Z,4.25
2022-09-06T17:08:08.387Z,4.72
2022-09-06T17:10:38.621Z,4.78
2022-09-06T17:13:05.072Z,7.97
2022-09-06T17:15:51.468Z,2.50
2022-09-06T17:18:17.917Z,3.65
2022-09-06T17:21:00.688Z,5.00
2022-09-06T17:23:28.160Z,4.15
2022-09-06T17:25:54.623Z,2.92
2022-09-06T17:28:21.087Z,3.13
2022-09-06T17:30:48.013Z,4.55
2022-09-06T17:33:17.031Z,3.03
2022-09-06T17:35:47.554Z,3.25
2022-09-06T17:38:16.248Z,3.88
2022-09-06T17:40:43.440Z,3.08
2022-09-06T17:43:10.007Z,4.78
2022-09-06T17:45:38.926Z,5.00
2022-09-06T17:48:05.484Z,3.58
2022-09-06T17:50:33.078Z,5.78
2022-09-06T17:53:00.085Z,6.97
2022-09-06T17:55:28.916Z,6.18
2022-09-06T17:57:56.330Z,5.32
2022-09-06T18:00:24.090Z,3.40
2022-09-06T18:02:50.845Z,3.17
2022-09-06T18:05:17.737Z,5.68
2022-09-06T18:07:44.654Z,5.50
2022-09-06T18:10:11.453Z,5.60
2022-09-06T18:12:38.423Z,5.40
2022-09-06T18:15:06.731Z,5.53
2022-09-06T18:17:33.233Z,6.55
2022-09-06T18:19:59.996Z,5.50
2022-09-06T18:22:26.522Z,4.93
2022-09-06T18:24:57.550Z,4.72
2022-09-06T18:27:24.932Z,5.40
2022-09-06T18:29:51.375Z,5.25
2022-09-06T18:32:17.882Z,6.20
2022-09-06T18:34:44.828Z,5.47
2022-09-06T18:37:11.872Z,3.95
2022-09-06T18:39:39.595Z,7.82
2022-09-06T18:42:11.094Z,4.40
2022-09-06T18:44:38.772Z,5.53
2022-09-06T18:47:07.990Z,6.10
2022-09-06T18:49:35.294Z,3.33
2022-09-06T18:52:06.231Z,7.38
2022-09-06T18:54:32.856Z,8.85
2022-09-06T18:56:59.949Z,5.20
2022-09-06T18:59:26.995Z,9.13
2022-09-06T19:01:54.006Z,3.88
2022-09-06T19:04:20.565Z,6.38
2022-09-06T19:06:47.088Z,5.18
2022-09-06T19:09:16.164Z,6.13
2022-09-06T19:11:45.512Z,4.22
2022-09-06T19:14:12.944Z,3.92
2022-09-06T19:16:41.957Z,8.15
2022-09-06T19:19:09.835Z,4.18
2022-09-06T19:21:41.438Z,6.13
2022-09-06T19:24:10.211Z,6.22
2022-09-06T19:26:40.085Z,4.20
2022-09-06T19:29:11.126Z,5.55
2022-09-06T19:31:38.842Z,5.07
2022-09-06T19:34:06.092Z,8.40
2022-09-06T19:36:32.982Z,5.82
2022-09-06T19:39:04.195Z,9.20
2022-09-06T19:41:33.947Z,6.85
2022-09-06T19:44:01.657Z,4.95
2022-09-06T19:46:28.313Z,7.90
2022-09-06T19:48:58.338Z,5.15
2022-09-06T19:51:25.007Z,10.02
2022-09-06T19:53:54.604Z,4.10
2022-09-06T19:56:26.793Z,7.05
2022-09-06T19:58:58.345Z,9.50
2022-09-06T20:01:32.090Z,5.63
2022-09-06T20:04:00.791Z,6.05
2022-09-06T20:06:27.661Z,6.07
2022-09-06T20:08:56.451Z,6.30
2022-09-06T20:11:25.962Z,5.45
2022-09-06T20:13:52.822Z,5.45
2022-09-06T20:16:20.955Z,7.13
2022-09-06T20:18:48.372Z,9.18
2022-09-06T20:21:17.740Z,5.82
2022-09-06T20:23:49.349Z,14.18
2022-09-06T20:26:16.614Z,8.48
2022-09-06T20:28:44.173Z,10.23
2022-09-06T20:31:20.538Z,5.68
2022-09-06T20:33:49.849Z,6.90
2022-09-06T20:36:18.196Z,5.30
2022-09-06T20:38:46.533Z,7.85
2022-09-06T20:41:17.285Z,6.88
2022-09-06T20:43:43.804Z,5.63
2022-09-06T20:46:14.578Z,5.85
2022-09-06T20:48:44.662Z,5.93
2022-09-06T20:51:23.412Z,7.57
2022-09-06T20:53:58.054Z,5.47
2022-09-06T20:56:28.052Z,4.82
2022-09-06T20:58:57.269Z,7.93
2022-09-06T21:01:25.558Z,8.02
2022-09-06T21:03:58.402Z,12.05
2022-09-06T21:06:27.195Z,3.67
2022-09-06T21:08:55.150Z,10.10
2022-09-06T21:11:21.906Z,9.35
2022-09-06T21:13:53.285Z,8.82
2022-09-06T21:16:24.236Z,5.45
2022-09-06T21:19:00.155Z,5.47
2022-09-06T21:21:28.535Z,5.28
2022-09-06T21:23:55.375Z,6.75
2022-09-06T21:26:22.631Z,5.95
2022-09-06T21:28:49.869Z,4.72
2022-09-06T21:31:24.809Z,6.60
2022-09-06T21:33:54.106Z,10.13
2022-09-06T21:36:29.292Z,7.07
2022-09-06T21:38:59.057Z,6.20
2022-09-06T21:41:26.953Z,5.38
2022-09-06T21:43:56.198Z,8.25
2022-09-06T21:46:27.804Z,8.00
2022-09-06T21:48:56.991Z,3.63
2022-09-06T21:51:29.002Z,12.35
2022-09-06T21:53:57.151Z,7.93
2022-09-06T21:56:24.260Z,4.97
2022-09-06T21:58:52.860Z,4.50
2022-09-06T22:01:19.579Z,4.95
2022-09-06T22:03:46.355Z,5.82
2022-09-06T22:06:18.449Z,8.35
2022-09-06T22:08:45.402Z,5.45
2022-09-06T22:11:12.929Z,5.20
2022-09-06T22:13:40.283Z,11.00
2022-09-06T22:16:08.343Z,8.88
2022-09-06T22:18:35.470Z,7.88
2022-09-06T22:21:11.707Z,3.30
2022-09-06T22:23:39.202Z,9.23
2022-09-06T22:26:12.898Z,5.47
2022-09-06T22:28:40.204Z,7.85
2022-09-06T22:31:07.778Z,6.68
2022-09-06T22:33:35.026Z,6.38
2022-09-06T22:36:01.819Z,4.97
2022-09-06T22:38:29.592Z,7.00
2022-09-06T22:40:57.220Z,4.53
2022-09-06T22:43:23.953Z,5.80
2022-09-06T22:45:52.105Z,6.80
2022-09-06T22:48:19.182Z,7.07
2022-09-06T22:50:45.690Z,6.25
2022-09-06T22:53:49.557Z,7.95
2022-09-06T22:56:16.461Z,7.90
2022-09-06T22:58:43.170Z,5.65
2022-09-06T23:01:15.256Z,3.95
2022-09-06T23:03:42.778Z,9.00
2022-09-06T23:06:09.942Z,4.03
2022-09-06T23:08:37.973Z,4.22
2022-09-06T23:11:13.983Z,7.05
2022-09-06T23:13:44.543Z,4.95
2022-09-06T23:16:19.198Z,7.85
2022-09-06T23:18:46.534Z,4.72
2022-09-06T23:21:19.669Z,5.38
2022-09-06T23:23:47.478Z,4.13
2022-09-06T23:26:27.299Z,5.00
2022-09-06T23:28:56.922Z,4.30
2022-09-06T23:31:28.607Z,4.70
2022-09-06T23:33:57.261Z,6.97
2022-09-06T23:36:24.336Z,4.50
2022-09-06T23:38:51.332Z,4.25
2022-09-06T23:41:18.140Z,3.15
2022-09-06T23:43:51.066Z,14.18
2022-09-06T23:46:17.760Z,5.10
2022-09-06T23:48:44.444Z,6.18
2022-09-06T23:51:11.972Z,3.40
2022-09-06T23:53:39.235Z,3.85
2022-09-06T23:56:05.937Z,5.68
2022-09-06T23:58:32.953Z,6.03
